Time;durP1;ratioP1;P1;durP2;ratioP2;P2;SDS_P1;SDS_P2;PMS_P1;PMS_P2;Temp;Humidity;BMP_temperature;BMP_pressure;BME280_temperature;BME280_humidity;BME280_pressure;Samples;Min_cycle;Max_cycle;Signal;HPM_P1;HPM_P2
2022/03/06 00:00:29;;;;;;;58.00;26.00;;;;;;;1.16;54.59;101004.55;129462;1274;109608;-69
2022/03/06 00:03:48;;;;;;;52.30;23.60;;;;;;;1.01;54.38;100999.16;129553;1274;109939;-69
2022/03/06 00:06:54;;;;;;;53.40;24.70;;;;;;;0.83;54.37;100998.25;129560;1276;108720;-71
2022/03/06 00:09:59;;;;;;;42.30;19.10;;;;;;;0.81;54.78;101003.64;129519;1276;108212;-71
2022/03/06 00:13:05;;;;;;;35.70;17.40;;;;;;;0.83;54.73;101002.48;129501;1276;109849;-71
2022/03/06 00:16:10;;;;;;;68.10;33.10;;;;;;;0.84;54.59;101000.11;129704;1276;108895;-70
2022/03/06 00:19:16;;;;;;;65.60;32.30;;;;;;;0.74;54.61;101008.11;129613;1275;108698;-71
2022/03/06 00:22:22;;;;;;;70.90;32.60;;;;;;;0.74;54.97;101009.70;129553;1277;108828;-71
2022/03/06 00:25:28;;;;;;;73.10;31.80;;;;;;;0.79;54.95;101010.15;129582;1275;106963;-70
2022/03/06 00:28:33;;;;;;;112.40;45.00;;;;;;;0.88;55.05;101006.25;129637;1273;108732;-71
2022/03/06 00:31:39;;;;;;;177.40;58.80;;;;;;;0.93;54.94;101007.75;129623;1274;108676;-70
2022/03/06 00:34:48;;;;;;;248.20;72.90;;;;;;;0.95;55.22;101006.44;129843;1273;108648;-72
2022/03/06 00:37:53;;;;;;;352.20;100.20;;;;;;;0.98;55.05;101008.23;129751;1273;107066;-71
2022/03/06 00:40:58;;;;;;;110.10;37.90;;;;;;;0.99;55.06;101004.14;129758;1273;108938;-71
2022/03/06 00:44:06;;;;;;;52.60;21.50;;;;;;;1.00;55.15;101006.20;129888;1272;108839;-71
2022/03/06 00:47:11;;;;;;;150.00;48.90;;;;;;;1.01;55.31;101007.92;129780;1273;108691;-71
2022/03/06 00:50:17;;;;;;;285.80;87.80;;;;;;;0.91;55.14;101005.05;129884;1274;107330;-71
2022/03/06 00:53:22;;;;;;;135.00;45.10;;;;;;;0.90;55.18;101001.41;129859;1273;108751;-70
2022/03/06 00:56:27;;;;;;;110.50;40.00;;;;;;;0.95;55.15;100994.88;129788;1273;107681;-70
2022/03/06 00:59:35;;;;;;;152.90;52.20;;;;;;;0.94;55.24;100996.30;129786;1274;108687;-69
2022/03/06 01:02:40;;;;;;;136.50;48.10;;;;;;;0.96;55.43;100994.30;129791;1274;108660;-72
2022/03/06 01:05:47;;;;;;;160.20;53.00;;;;;;;0.97;55.32;100989.50;129736;1273;108729;-71
2022/03/06 01:08:52;;;;;;;205.60;77.70;;;;;;;0.97;55.44;100989.52;129776;1274;108758;-71
2022/03/06 01:11:58;;;;;;;149.50;64.50;;;;;;;0.98;55.51;100985.78;129777;1274;108537;-72
2022/03/06 01:15:04;;;;;;;82.30;37.40;;;;;;;0.99;55.39;100987.69;129722;1274;108893;-71
2022/03/06 01:18:10;;;;;;;72.50;31.80;;;;;;;0.97;55.41;100984.26;129702;1274;108538;-72
2022/03/06 01:21:15;;;;;;;67.10;31.00;;;;;;;0.96;55.47;100983.95;129729;1274;108807;-70
2022/03/06 01:24:21;;;;;;;59.80;27.20;;;;;;;0.96;55.52;100976.59;129711;1274;107025;-71
2022/03/06 01:27:26;;;;;;;62.90;30.20;;;;;;;0.96;55.56;100974.14;129685;1273;110599;-71
2022/03/06 01:30:32;;;;;;;70.80;32.10;;;;;;;0.96;55.65;100974.70;129699;1274;108946;-71
2022/03/06 01:33:37;;;;;;;55.40;27.00;;;;;;;0.98;55.59;100974.76;129729;1275;108738;-70
2022/03/06 01:36:43;;;;;;;49.30;23.20;;;;;;;1.00;55.73;100970.10;129690;1274;107715;-69
2022/03/06 01:39:48;;;;;;;53.90;25.30;;;;;;;1.02;55.64;100975.25;129720;1274;106952;-70
2022/03/06 01:42:53;;;;;;;53.40;24.30;;;;;;;1.00;55.73;100970.28;129696;1274;108697;-72
2022/03/06 01:45:59;;;;;;;50.20;24.20;;;;;;;0.98;55.90;100976.30;129761;1273;108920;-70
2022/03/06 01:49:04;;;;;;;45.70;22.20;;;;;;;1.00;55.96;100976.93;129712;1273;108778;-71
2022/03/06 01:52:10;;;;;;;43.10;20.50;;;;;;;1.01;55.88;100973.04;129672;1273;108697;-71
2022/03/06 01:55:18;;;;;;;59.00;25.80;;;;;;;1.00;55.83;100971.52;129664;1273;106948;-71
2022/03/06 01:58:23;;;;;;;64.50;27.30;;;;;;;0.98;55.78;100966.50;129741;1274;106842;-69
2022/03/06 02:01:31;;;;;;;48.70;22.50;;;;;;;0.99;55.88;100967.20;129648;1274;107748;-70
2022/03/06 02:04:36;;;;;;;61.90;25.70;;;;;;;1.01;55.89;100963.74;129696;1274;109058;-69
2022/03/06 02:07:42;;;;;;;43.60;19.90;;;;;;;0.97;55.47;100966.94;129533;1273;213497;-68
2022/03/06 02:10:50;;;;;;;39.00;19.20;;;;;;;0.83;55.37;100968.14;129737;1274;108681;-69
2022/03/06 02:13:55;;;;;;;36.80;19.30;;;;;;;0.75;55.29;100963.23;129667;1274;108459;-68
2022/03/06 02:17:01;;;;;;;35.90;18.90;;;;;;;0.79;55.51;100961.33;129610;1274;107725;-68
2022/03/06 02:20:10;;;;;;;39.20;19.00;;;;;;;0.81;55.73;100965.08;129660;1274;108867;-68
2022/03/06 02:23:16;;;;;;;39.20;19.70;;;;;;;0.85;55.84;100961.38;129581;1276;108749;-69
2022/03/06 02:26:21;;;;;;;39.60;19.40;;;;;;;0.88;55.96;100957.92;129707;1274;108733;-71
2022/03/06 02:29:26;;;;;;;42.80;21.20;;;;;;;0.91;56.03;100961.27;129654;1273;108488;-69
2022/03/06 02:32:32;;;;;;;50.50;21.80;;;;;;;0.91;56.13;100957.03;129689;1274;107005;-69
2022/03/06 02:35:39;;;;;;;41.50;20.20;;;;;;;0.92;56.25;100956.48;129736;1274;108847;-70
2022/03/06 02:38:44;;;;;;;47.70;21.30;;;;;;;0.95;56.30;100955.66;129729;1274;108870;-69
2022/03/06 02:41:49;;;;;;;47.30;22.80;;;;;;;0.97;56.18;100952.90;129743;1273;108756;-70
2022/03/06 02:44:56;;;;;;;50.10;21.70;;;;;;;0.93;56.01;100949.77;129719;1274;108815;-70
2022/03/06 02:48:03;;;;;;;53.20;24.00;;;;;;;0.90;56.11;100950.24;129764;1274;109056;-70
2022/03/06 02:51:08;;;;;;;53.10;30.20;;;;;;;0.92;55.96;100944.02;129730;1273;108834;-70
2022/03/06 02:54:17;;;;;;;43.40;22.00;;;;;;;0.93;55.54;100944.89;129703;1273;108603;-70
2022/03/06 02:57:22;;;;;;;42.30;20.80;;;;;;;0.90;56.18;100948.50;129748;1273;108872;-71
2022/03/06 03:00:29;;;;;;;38.80;19.60;;;;;;;0.94;56.11;100943.77;129765;1273;107691;-71
2022/03/06 03:03:44;;;;;;;42.60;21.20;;;;;;;0.96;56.09;100944.04;129824;1274;107091;-72
2022/03/06 03:06:50;;;;;;;193.00;70.80;;;;;;;0.94;56.36;100946.56;129835;1274;108725;-71
2022/03/06 03:09:56;;;;;;;155.80;57.60;;;;;;;0.92;56.11;100946.30;129814;1273;108478;-70
2022/03/06 03:13:01;;;;;;;104.20;41.90;;;;;;;0.91;56.17;100946.38;129717;1273;107658;-68
2022/03/06 03:16:07;;;;;;;65.70;28.30;;;;;;;0.92;56.47;100944.20;129705;1273;108632;-70
2022/03/06 03:19:13;;;;;;;42.70;22.00;;;;;;;0.92;56.17;100950.36;129744;1273;108738;-74
2022/03/06 03:22:18;;;;;;;36.90;19.10;;;;;;;0.92;56.05;100949.13;129729;1273;108755;-70
2022/03/06 03:25:23;;;;;;;47.30;23.00;;;;;;;0.92;56.14;100948.05;129809;1273;108809;-71
2022/03/06 03:28:29;;;;;;;110.90;52.50;;;;;;;0.94;56.50;100945.54;129766;1273;108806;-72
2022/03/06 03:31:34;;;;;;;105.80;50.00;;;;;;;0.93;56.30;100949.95;129765;1273;107720;-72
2022/03/06 03:34:40;;;;;;;65.00;32.10;;;;;;;0.91;56.41;100953.21;129849;1273;108967;-72
2022/03/06 03:37:45;;;;;;;43.10;22.10;;;;;;;0.92;56.26;100954.04;129837;1273;109033;-73
2022/03/06 03:40:50;;;;;;;37.90;20.10;;;;;;;0.91;55.93;100952.16;129812;1273;107105;-72
2022/03/06 03:43:57;;;;;;;36.10;19.10;;;;;;;0.90;55.96;100953.05;129765;1273;108895;-72
2022/03/06 03:47:02;;;;;;;31.20;16.70;;;;;;;0.90;56.27;100954.98;129828;1273;108970;-72
2022/03/06 03:50:10;;;;;;;61.60;22.20;;;;;;;0.91;56.21;100957.95;129772;1273;109007;-72
2022/03/06 03:53:15;;;;;;;89.50;27.00;;;;;;;0.88;55.99;100958.44;129816;1273;107700;-72
2022/03/06 03:56:22;;;;;;;60.20;20.80;;;;;;;0.88;56.07;100959.14;129860;1273;108883;-68
2022/03/06 03:59:27;;;;;;;54.80;19.40;;;;;;;0.91;55.97;100958.82;129678;1273;109299;-68
2022/03/06 04:02:32;;;;;;;55.20;21.00;;;;;;;0.93;56.10;100961.70;129716;1273;108924;-70
2022/03/06 04:05:38;;;;;;;48.60;19.80;;;;;;;0.94;56.02;100961.80;129709;1273;108894;-69
2022/03/06 04:08:43;;;;;;;40.90;18.30;;;;;;;0.95;56.20;100958.26;129696;1273;108824;-69
2022/03/06 04:11:49;;;;;;;43.40;19.00;;;;;;;0.93;56.47;100961.83;129668;1273;108847;-68
2022/03/06 04:14:54;;;;;;;38.30;18.00;;;;;;;0.92;56.41;100961.05;129702;1273;108856;-68
2022/03/06 04:18:00;;;;;;;37.00;17.20;;;;;;;0.91;56.30;100957.41;129670;1273;109683;-68
2022/03/06 04:21:05;;;;;;;27.90;15.00;;;;;;;0.85;55.68;100959.27;129687;1273;108816;-69
2022/03/06 04:24:11;;;;;;;31.90;16.50;;;;;;;0.71;55.68;100961.32;129688;1273;108878;-69
2022/03/06 04:27:16;;;;;;;29.90;15.00;;;;;;;0.71;56.27;100963.63;129666;1273;108660;-69
2022/03/06 04:30:22;;;;;;;28.30;14.70;;;;;;;0.73;55.91;100961.59;129690;1273;108721;-69
2022/03/06 04:33:27;;;;;;;28.90;15.30;;;;;;;0.71;56.15;100962.91;129694;1273;108477;-70
2022/03/06 04:36:32;;;;;;;27.10;15.10;;;;;;;0.72;56.38;100966.53;129666;1272;107698;-68
2022/03/06 04:39:38;;;;;;;24.20;13.40;;;;;;;0.72;56.55;100968.80;129706;1273;108661;-71
2022/03/06 04:42:44;;;;;;;25.30;14.10;;;;;;;0.72;56.38;100965.30;129695;1273;108793;-71
2022/03/06 04:45:49;;;;;;;24.60;13.90;;;;;;;0.75;56.44;100962.20;129675;1273;109941;-70
2022/03/06 04:48:55;;;;;;;25.30;15.00;;;;;;;0.76;56.42;100964.80;129664;1273;108907;-69
2022/03/06 04:52:00;;;;;;;26.30;14.20;;;;;;;0.74;56.16;100966.46;129667;1273;109269;-71
2022/03/06 04:55:08;;;;;;;25.20;13.80;;;;;;;0.74;56.36;100967.84;129683;1273;108816;-71
2022/03/06 04:58:13;;;;;;;29.60;15.00;;;;;;;0.76;56.42;100965.48;129797;1273;108787;-71
2022/03/06 05:01:18;;;;;;;26.90;14.10;;;;;;;0.76;56.57;100961.77;129749;1273;108726;-70
2022/03/06 05:04:24;;;;;;;24.70;12.90;;;;;;;0.75;56.58;100959.38;129763;1273;108774;-71
2022/03/06 05:07:29;;;;;;;26.10;13.50;;;;;;;0.75;56.87;100962.16;129718;1273;108934;-71
2022/03/06 05:10:35;;;;;;;24.60;14.20;;;;;;;0.75;56.77;100963.77;129655;1275;108565;-71
2022/03/06 05:13:41;;;;;;;34.50;16.20;;;;;;;0.72;56.54;100962.69;129715;1273;106723;-70
2022/03/06 05:16:46;;;;;;;42.40;18.80;;;;;;;0.71;56.65;100963.06;129681;1273;108788;-70
2022/03/06 05:19:52;;;;;;;48.30;20.20;;;;;;;0.73;56.65;100962.98;129675;1273;108752;-71
2022/03/06 05:22:57;;;;;;;44.00;20.00;;;;;;;0.73;56.78;100961.41;129752;1273;109144;-71
2022/03/06 05:26:03;;;;;;;39.70;18.10;;;;;;;0.73;56.83;100958.60;129650;1273;108771;-70
2022/03/06 05:29:08;;;;;;;39.60;18.50;;;;;;;0.74;56.87;100956.61;129686;1273;108772;-71
2022/03/06 05:32:13;;;;;;;38.00;19.10;;;;;;;0.78;56.69;100955.59;129791;1273;108589;-72
2022/03/06 05:35:19;;;;;;;35.80;17.60;;;;;;;0.80;56.83;100954.42;129762;1273;109112;-70
2022/03/06 05:38:24;;;;;;;34.10;17.70;;;;;;;0.82;56.85;100958.02;129693;1273;107582;-70
2022/03/06 05:41:30;;;;;;;33.20;18.00;;;;;;;0.84;56.75;100958.30;129634;1273;109155;-70
2022/03/06 05:44:35;;;;;;;36.30;19.10;;;;;;;0.86;56.65;100955.40;129682;1273;108762;-70
2022/03/06 05:47:41;;;;;;;49.20;23.20;;;;;;;0.88;56.81;100957.21;129672;1273;108242;-71
2022/03/06 05:50:46;;;;;;;50.40;24.40;;;;;;;0.92;56.89;100954.94;129670;1273;108879;-69
2022/03/06 05:53:51;;;;;;;37.30;18.90;;;;;;;0.95;56.78;100955.11;129668;1273;109018;-69
2022/03/06 05:56:57;;;;;;;20.30;11.60;;;;;;;0.94;56.13;100955.13;129671;1273;108657;-69
2022/03/06 06:00:08;;;;;;;17.90;10.30;;;;;;;0.88;55.81;100957.73;129704;1273;108568;-70
2022/03/06 06:03:13;;;;;;;18.70;10.70;;;;;;;0.83;55.37;100958.67;129641;1274;108777;-69
2022/03/06 06:06:18;;;;;;;18.90;11.00;;;;;;;0.78;55.34;100962.05;129646;1273;109669;-70
2022/03/06 06:09:24;;;;;;;18.50;11.40;;;;;;;0.77;54.76;100961.39;129641;1273;109121;-69
2022/03/06 06:12:29;;;;;;;18.70;10.40;;;;;;;0.71;54.43;100962.20;129665;1273;108721;-71
2022/03/06 06:15:37;;;;;;;20.80;11.40;;;;;;;0.66;54.53;100963.34;129669;1273;108909;-70
2022/03/06 06:18:42;;;;;;;17.60;10.70;;;;;;;0.69;55.10;100964.23;129713;1273;108581;-71
2022/03/06 06:21:48;;;;;;;18.00;10.40;;;;;;;0.77;54.56;100961.38;129658;1273;108472;-71
2022/03/06 06:24:53;;;;;;;18.10;10.10;;;;;;;0.84;54.78;100962.85;129658;1273;108131;-71
2022/03/06 06:27:59;;;;;;;15.40;8.10;;;;;;;0.95;54.76;100961.08;129672;1273;109088;-69
2022/03/06 06:31:05;;;;;;;13.90;8.60;;;;;;;0.98;54.17;100958.63;129680;1273;108953;-71
2022/03/06 06:34:11;;;;;;;13.80;7.90;;;;;;;1.04;54.05;100957.64;129734;1273;108730;-74
2022/03/06 06:37:16;;;;;;;14.50;8.70;;;;;;;1.05;54.00;100958.81;129770;1273;108743;-71
2022/03/06 06:40:22;;;;;;;16.10;10.20;;;;;;;1.06;53.80;100959.83;129774;1273;107671;-71
2022/03/06 06:43:29;;;;;;;15.90;9.90;;;;;;;1.09;53.85;100959.86;129764;1273;108526;-71
2022/03/06 06:46:35;;;;;;;15.10;9.30;;;;;;;1.17;53.93;100959.65;129690;1276;108611;-71
2022/03/06 06:49:40;;;;;;;13.40;8.40;;;;;;;1.32;53.61;100960.84;129775;1273;109122;-71
2022/03/06 06:52:46;;;;;;;14.10;9.00;;;;;;;1.41;53.72;100957.23;129691;1273;108754;-71
2022/03/06 06:55:51;;;;;;;14.70;8.90;;;;;;;1.50;53.42;100955.55;129676;1273;108949;-72
2022/03/06 06:58:57;;;;;;;13.00;8.40;;;;;;;1.60;53.42;100950.84;129688;1274;108854;-72
2022/03/06 07:02:02;;;;;;;40.90;21.20;;;;;;;1.67;52.07;100956.10;129696;1273;108930;-70
2022/03/06 07:05:09;;;;;;;22.10;12.50;;;;;;;1.65;52.40;100956.02;129642;1273;108849;-69
2022/03/06 07:08:14;;;;;;;33.50;22.20;;;;;;;1.63;52.88;100956.85;129590;1276;108839;-72
2022/03/06 07:11:20;;;;;;;23.40;15.80;;;;;;;1.61;51.91;100956.77;129614;1273;108804;-71
2022/03/06 07:14:25;;;;;;;15.20;8.90;;;;;;;1.51;50.71;100956.55;129623;1273;108826;-72
2022/03/06 07:17:31;;;;;;;11.30;7.20;;;;;;;1.55;51.84;100955.48;129705;1273;109550;-70
2022/03/06 07:20:36;;;;;;;14.20;9.20;;;;;;;1.62;51.34;100957.41;129691;1273;108701;-72
2022/03/06 07:23:42;;;;;;;12.90;8.30;;;;;;;1.67;50.58;100955.59;129697;1273;108574;-70
2022/03/06 07:26:47;;;;;;;10.70;7.30;;;;;;;1.66;51.20;100955.27;129671;1273;108758;-72
2022/03/06 07:29:53;;;;;;;9.10;6.40;;;;;;;1.69;50.55;100955.98;129559;1274;108977;-73
2022/03/06 07:32:59;;;;;;;14.50;10.30;;;;;;;1.70;50.72;100953.15;129730;1274;109036;-76
2022/03/06 07:36:06;;;;;;;7.90;5.60;;;;;;;1.74;49.94;100953.11;129720;1274;108860;-73
2022/03/06 07:39:11;;;;;;;8.10;5.40;;;;;;;1.72;48.87;100953.18;129669;1274;108841;-75
2022/03/06 07:42:17;;;;;;;12.70;8.90;;;;;;;1.69;47.83;100953.90;129694;1274;108966;-74
2022/03/06 07:45:22;;;;;;;9.80;7.00;;;;;;;1.65;49.05;100957.98;129739;1274;108844;-74
2022/03/06 07:48:27;;;;;;;11.00;6.90;;;;;;;1.72;50.39;100959.52;129716;1274;108977;-76
2022/03/06 07:51:33;;;;;;;10.70;7.10;;;;;;;1.83;48.25;100957.71;129710;1274;108807;-74
2022/03/06 07:54:38;;;;;;;7.50;5.10;;;;;;;1.90;49.13;100956.64;129727;1274;108784;-76
2022/03/06 07:57:43;;;;;;;7.80;5.40;;;;;;;2.06;49.85;100963.05;129749;1274;108822;-75
2022/03/06 08:00:49;;;;;;;7.70;5.10;;;;;;;2.17;49.64;100956.98;129677;1274;108670;-74
2022/03/06 08:03:54;;;;;;;8.00;5.60;;;;;;;2.31;49.87;100956.61;129772;1274;106792;-74
2022/03/06 08:07:00;;;;;;;7.10;4.60;;;;;;;2.42;49.66;100959.36;129723;1273;109070;-76
2022/03/06 08:10:06;;;;;;;8.80;5.20;;;;;;;2.49;49.10;100953.18;129517;1275;106749;-72
2022/03/06 08:13:11;;;;;;;9.50;6.00;;;;;;;2.55;49.52;100953.71;129709;1274;108962;-74
2022/03/06 08:16:17;;;;;;;7.00;5.10;;;;;;;2.64;48.99;100957.24;129720;1274;108666;-74
2022/03/06 08:19:22;;;;;;;10.00;6.20;;;;;;;2.72;49.35;100952.61;129671;1274;107786;-76
2022/03/06 08:22:28;;;;;;;16.50;9.60;;;;;;;2.77;48.78;100954.95;129823;1274;108749;-75
2022/03/06 08:25:34;;;;;;;20.00;11.20;;;;;;;2.70;46.60;100952.34;129708;1274;108935;-76
2022/03/06 08:28:39;;;;;;;13.40;8.20;;;;;;;2.62;48.42;100951.42;129743;1274;108872;-73
2022/03/06 08:31:44;;;;;;;8.10;5.60;;;;;;;2.73;49.13;100951.67;129776;1274;109360;-75
2022/03/06 08:34:51;;;;;;;13.20;8.10;;;;;;;2.96;48.86;100952.31;129763;1274;108821;-77
2022/03/06 08:37:56;;;;;;;9.30;5.30;;;;;;;2.95;47.27;100952.52;129725;1274;108990;-75
2022/03/06 08:41:02;;;;;;;6.50;4.30;;;;;;;2.92;47.62;100956.24;129737;1274;107411;-75
2022/03/06 08:44:08;;;;;;;6.70;4.80;;;;;;;2.91;47.60;100953.63;129718;1274;108692;-74
2022/03/06 08:47:13;;;;;;;6.40;4.70;;;;;;;2.87;47.32;100955.27;129708;1274;108830;-75
2022/03/06 08:50:19;;;;;;;11.70;6.20;;;;;;;2.88;47.38;100952.27;129694;1274;108798;-75
2022/03/06 08:53:24;;;;;;;8.60;5.10;;;;;;;2.92;47.64;100950.58;129811;1274;108792;-75
2022/03/06 08:56:30;;;;;;;6.60;4.50;;;;;;;3.07;47.94;100952.58;129781;1274;109564;-75
2022/03/06 08:59:35;;;;;;;7.10;4.80;;;;;;;3.19;47.70;100952.59;129599;1274;108797;-75
2022/03/06 09:02:41;;;;;;;8.90;6.20;;;;;;;3.27;47.43;100954.62;129713;1274;108989;-75
2022/03/06 09:05:46;;;;;;;16.80;12.90;;;;;;;3.31;47.77;100947.33;129732;1274;109728;-75
2022/03/06 09:08:51;;;;;;;25.80;19.60;;;;;;;3.36;46.86;100946.87;129954;1274;108718;-74
2022/03/06 09:11:57;;;;;;;13.20;8.00;;;;;;;3.29;46.40;100951.31;129709;1276;108803;-74
2022/03/06 09:15:02;;;;;;;9.50;7.40;;;;;;;3.13;44.66;100956.77;129839;1274;108945;-74
2022/03/06 09:18:08;;;;;;;13.60;8.30;;;;;;;2.98;45.81;100954.51;130115;1274;108972;-75
2022/03/06 09:21:13;;;;;;;7.40;5.00;;;;;;;3.03;46.83;100954.04;129779;1274;108835;-76
2022/03/06 09:24:19;;;;;;;7.90;5.60;;;;;;;3.20;46.33;100956.39;129739;1274;109150;-74
2022/03/06 09:27:24;;;;;;;6.50;4.50;;;;;;;3.33;47.15;100949.16;129729;1274;108893;-75
2022/03/06 09:30:30;;;;;;;7.50;4.90;;;;;;;3.51;46.55;100947.90;129740;1274;108907;-75
2022/03/06 09:33:36;;;;;;;7.40;5.00;;;;;;;3.56;46.41;100944.28;129868;1274;108824;-77
2022/03/06 09:36:41;;;;;;;7.20;4.90;;;;;;;3.66;46.76;100940.67;129753;1274;108613;-79
2022/03/06 09:39:47;;;;;;;6.60;4.70;;;;;;;3.79;46.18;100937.13;129755;1274;108891;-77
2022/03/06 09:42:53;;;;;;;6.10;4.40;;;;;;;3.83;46.33;100935.64;129748;1274;108714;-78
2022/03/06 09:46:05;;;;;;;8.10;5.50;;;;;;;3.88;46.54;100930.73;129707;1274;108883;-76
2022/03/06 09:49:11;;;;;;;9.40;6.40;;;;;;;3.97;46.54;100928.95;129798;1274;108827;-76
2022/03/06 09:52:16;;;;;;;10.70;7.70;;;;;;;4.01;44.25;100935.44;129760;1274;109008;-77
2022/03/06 09:55:22;;;;;;;14.60;10.10;;;;;;;3.87;44.70;100933.95;129759;1274;108725;-78
2022/03/06 09:58:29;;;;;;;8.60;5.90;;;;;;;3.74;44.28;100932.45;129693;1274;108931;-79
2022/03/06 10:01:34;;;;;;;7.10;5.80;;;;;;;3.65;44.78;100932.88;129699;1276;108776;-77
2022/03/06 10:04:40;;;;;;;8.30;6.20;;;;;;;3.72;45.05;100927.84;129742;1276;109766;-76
2022/03/06 10:07:45;;;;;;;9.60;6.50;;;;;;;3.76;42.84;100923.06;129719;1276;108750;-78
2022/03/06 10:10:53;;;;;;;7.00;5.50;;;;;;;3.71;45.23;100923.33;129675;1276;108884;-78
2022/03/06 10:13:58;;;;;;;7.50;5.60;;;;;;;3.91;45.59;100918.60;129643;1276;108789;-76
2022/03/06 10:17:15;;;;;;;9.30;6.20;;;;;;;4.14;45.39;100917.33;129636;1276;108791;-77
2022/03/06 10:20:20;;;;;;;8.00;5.80;;;;;;;4.20;44.85;100919.27;129656;1276;108940;-74
2022/03/06 10:23:29;;;;;;;7.70;5.20;;;;;;;4.28;45.09;100915.79;129806;1274;108835;-78
2022/03/06 10:26:36;;;;;;;9.30;6.90;;;;;;;4.36;44.88;100916.86;129736;1276;108840;-78
2022/03/06 10:29:42;;;;;;;13.90;9.10;;;;;;;4.30;43.46;100915.11;129653;1276;109059;-77
2022/03/06 10:32:47;;;;;;;8.60;6.00;;;;;;;4.26;45.22;100910.27;130146;1275;107753;-77
2022/03/06 10:35:55;;;;;;;11.10;8.00;;;;;;;4.36;44.55;100909.68;129709;1276;108840;-76
2022/03/06 10:39:00;;;;;;;10.40;8.30;;;;;;;4.38;45.02;100906.72;130113;1276;107869;-78
2022/03/06 10:42:10;;;;;;;26.80;17.70;;;;;;;4.44;44.33;100905.42;130134;1275;109077;-77
2022/03/06 10:45:25;;;;;;;14.20;9.70;;;;;;;4.40;45.18;100896.40;129873;1275;108957;-76
2022/03/06 10:48:30;;;;;;;11.30;7.40;;;;;;;4.44;43.67;100893.07;130508;1275;107875;-77
2022/03/06 10:51:40;;;;;;;10.40;7.20;;;;;;;4.45;45.00;100886.36;129643;1276;108921;-73
2022/03/06 10:54:52;;;;;;;29.50;20.60;;;;;;;4.45;42.54;100884.95;129702;1274;107732;-75
2022/03/06 10:57:58;;;;;;;12.00;8.60;;;;;;;4.30;42.59;100882.21;130189;1274;108771;-79
2022/03/06 11:01:04;;;;;;;10.10;6.70;;;;;;;4.23;43.73;100880.35;130092;1274;108847;-79
2022/03/06 11:04:13;;;;;;;12.30;8.50;;;;;;;4.23;42.92;100877.71;129848;1274;107600;-74
2022/03/06 11:07:19;;;;;;;9.70;6.90;;;;;;;4.22;43.27;100879.71;129751;1274;107099;-78
2022/03/06 11:10:25;;;;;;;9.60;6.60;;;;;;;4.26;44.39;100879.29;129698;1275;108786;-76
2022/03/06 11:13:32;;;;;;;10.00;6.80;;;;;;;4.34;43.61;100873.48;129847;1275;108676;-78
2022/03/06 11:16:39;;;;;;;13.00;9.30;;;;;;;4.34;42.32;100870.31;130439;1274;108601;-75
2022/03/06 11:19:45;;;;;;;36.20;20.30;;;;;;;4.18;41.65;100869.55;129679;1274;108792;-77
2022/03/06 11:22:56;;;;;;;21.40;13.20;;;;;;;3.91;41.89;100863.47;129726;1274;106810;-77
2022/03/06 11:26:32;;;;;;;27.60;17.60;;;;;;;3.81;41.98;100857.98;129841;1274;106895;-82
2022/03/06 11:30:04;;;;;;;11.70;8.70;;;;;;;3.81;43.17;100856.20;129945;1274;108761;-81
2022/03/06 11:33:11;;;;;;;20.20;10.60;;;;;;;3.82;42.86;100857.52;129652;1274;108134;-75
2022/03/06 11:36:25;;;;;;;10.70;7.40;;;;;;;3.81;43.55;100854.95;129588;1274;108849;-76
2022/03/06 11:39:50;;;;;;;11.30;8.30;;;;;;;4.04;44.23;100854.23;129595;1275;108760;-79
2022/03/06 11:42:58;;;;;;;10.10;7.60;;;;;;;4.27;43.41;100850.84;129859;1276;108788;-78
2022/03/06 11:46:12;;;;;;;29.90;21.20;;;;;;;4.15;41.91;100848.28;130231;1274;109045;-77
2022/03/06 11:49:17;;;;;;;14.90;10.80;;;;;;;4.22;43.86;100843.10;129771;1274;107749;-79
2022/03/06 11:52:29;;;;;;;19.30;13.40;;;;;;;4.26;42.31;100840.85;129858;1274;108742;-77
2022/03/06 11:55:36;;;;;;;13.80;11.10;;;;;;;4.09;41.42;100839.71;129807;1274;108786;-78
2022/03/06 11:58:57;;;;;;;14.90;11.30;;;;;;;4.02;43.07;100833.61;129859;1274;108787;-76
2022/03/06 12:02:08;;;;;;;16.30;9.90;;;;;;;4.13;43.60;100827.08;129751;1274;108604;-76
2022/03/06 12:05:16;;;;;;;11.50;8.70;;;;;;;4.21;43.24;100821.14;129766;1274;108705;-75
2022/03/06 12:08:25;;;;;;;11.70;8.50;;;;;;;4.32;43.33;100820.38;129787;1274;109010;-75
2022/03/06 12:11:36;;;;;;;11.40;8.60;;;;;;;4.33;41.30;100816.45;129811;1274;107136;-77
2022/03/06 12:14:43;;;;;;;10.60;7.80;;;;;;;4.03;39.73;100818.58;130160;1274;107878;-77
2022/03/06 12:17:48;;;;;;;11.60;7.80;;;;;;;3.72;41.39;100812.22;129877;1274;108216;-77
2022/03/06 12:20:53;;;;;;;11.20;9.10;;;;;;;3.73;42.43;100810.61;129741;1274;108747;-77
2022/03/06 12:24:27;;;;;;;11.50;8.20;;;;;;;3.78;41.49;100805.02;129754;1274;108830;-75
2022/03/06 12:27:34;;;;;;;24.10;17.80;;;;;;;3.79;42.34;100800.20;129787;1274;108624;-76
2022/03/06 12:30:40;;;;;;;13.10;9.70;;;;;;;3.88;42.88;100798.39;130014;1273;108762;-76
2022/03/06 12:33:45;;;;;;;14.60;10.10;;;;;;;3.86;41.46;100792.67;129958;1273;106747;-78
2022/03/06 12:36:56;;;;;;;15.10;11.00;;;;;;;3.78;41.98;100793.70;129968;1273;108782;-76
2022/03/06 12:40:06;;;;;;;14.30;9.90;;;;;;;3.66;42.20;100786.55;129938;1273;108907;-75
2022/03/06 12:43:22;;;;;;;12.20;8.60;;;;;;;3.66;41.68;100783.25;129909;1273;108965;-74
2022/03/06 12:46:27;;;;;;;11.10;8.70;;;;;;;3.53;41.46;100780.71;129918;1273;108889;-75
2022/03/06 12:49:33;;;;;;;12.50;8.80;;;;;;;3.43;41.76;100782.19;129880;1273;109251;-75
2022/03/06 12:52:40;;;;;;;20.30;16.80;;;;;;;3.41;42.42;100781.41;129845;1272;108504;-78
2022/03/06 12:55:45;;;;;;;27.50;20.80;;;;;;;3.50;42.41;100784.75;129954;1273;108747;-78
2022/03/06 12:58:51;;;;;;;15.00;11.60;;;;;;;3.40;41.61;100782.73;129734;1274;108945;-77
2022/03/06 13:01:57;;;;;;;19.40;13.70;;;;;;;3.38;42.82;100780.39;129801;1274;108969;-79
2022/03/06 13:05:03;;;;;;;63.70;24.10;;;;;;;3.44;43.01;100775.27;129735;1274;108837;-78
2022/03/06 13:08:09;;;;;;;134.80;44.60;;;;;;;3.43;42.74;100776.91;129729;1274;108873;-80
2022/03/06 13:11:14;;;;;;;87.80;31.80;;;;;;;3.41;42.23;100776.85;129747;1274;108690;-78
2022/03/06 13:14:28;;;;;;;40.00;23.30;;;;;;;3.36;42.02;100776.46;129933;1273;109002;-78
2022/03/06 13:17:33;;;;;;;35.50;23.40;;;;;;;3.26;42.01;100776.73;129863;1273;108626;-78
2022/03/06 13:20:40;;;;;;;28.80;17.60;;;;;;;3.05;40.91;100777.96;129861;1273;108607;-78
2022/03/06 13:23:59;;;;;;;24.90;14.60;;;;;;;2.79;41.32;100781.98;129855;1274;108742;-76
2022/03/06 13:27:05;;;;;;;32.70;20.10;;;;;;;2.62;42.42;100782.77;129822;1274;108788;-79
2022/03/06 13:30:15;;;;;;;44.30;27.90;;;;;;;2.52;41.80;100779.67;129754;1274;108744;-79
2022/03/06 13:33:22;;;;;;;33.50;22.90;;;;;;;2.34;42.17;100778.04;130009;1274;107657;-77
2022/03/06 13:36:28;;;;;;;21.80;15.20;;;;;;;2.31;42.24;100779.13;129897;1274;109248;-79
2022/03/06 13:39:34;;;;;;;18.10;12.40;;;;;;;2.20;41.94;100781.30;130223;1274;108769;-80
2022/03/06 13:42:40;;;;;;;19.10;14.40;;;;;;;2.12;42.40;100781.58;129842;1274;108744;-79
2022/03/06 13:45:55;;;;;;;19.80;13.30;;;;;;;2.13;42.42;100782.21;129654;1274;108741;-80
2022/03/06 13:49:15;;;;;;;38.30;22.80;;;;;;;2.14;42.64;100777.42;129923;1275;108735;-79
2022/03/06 13:52:37;;;;;;;22.10;14.80;;;;;;;2.17;42.96;100772.56;129880;1275;107942;-77
2022/03/06 13:55:51;;;;;;;22.10;15.20;;;;;;;2.17;42.28;100777.79;129728;1274;108965;-76
2022/03/06 13:58:57;;;;;;;21.90;15.10;;;;;;;2.10;42.36;100776.43;129938;1274;108789;-76
2022/03/06 14:02:11;;;;;;;24.00;15.50;;;;;;;2.04;42.17;100778.70;129564;1276;108721;-76